Terminal Aerodrome Forecast
Issued by NWS

Home | Current Version | Previous Version | Text Only | Print | Product List | Glossary On
Versions: 1 2 3 4 5 6 7 8 9 10 11 12 13 14 15 16 17 18 19 20
000
FTUS46 KLOX 050500 RRA
TAFSBA
TAF
KSBA 050551Z 0506/0606 VRB03KT P6SM SKC
     FM051000 VRB03KT P6SM SCT015
     FM051600 14006KT P6SM OVC020
     FM051900 23008KT P6SM BKN025
     FM052100 25010KT P6SM SCT030
     FM060200 VRB03KT P6SM FEW030=

USA.gov is the U.S. government's official web portal to all federal, state and local government web resources and services.